Terminal Aerodrome Forecast
Issued by NWS North Platte, NE

Home | Current Version | Previous Version | Graphics & Text | Print | Product List | Glossary On
Versions: 1 2 3 4 5 6 7 8 9 10 11 12 13
389
FTUS43 KLBF 231123
TAFVTN
TAF
KVTN 231123Z 2312/2412 VRB04KT P6SM SKC
     FM231800 07006KT P6SM FEW250
     FM240400 10006KT P6SM FEW250
     FM240800 12007KT P6SM SCT250=

USA.gov is the U.S. government's official web portal to all federal, state and local government web resources and services.